createdAt,value
2019-03-28T00:00:46.272Z,4.00
2019-03-28T00:01:46.257Z,4.00
2019-03-28T00:02:46.242Z,4.00
2019-03-28T00:03:46.213Z,4.00
2019-03-28T00:04:46.192Z,4.00
2019-03-28T00:05:46.166Z,4.00
2019-03-28T00:06:46.143Z,4.00
2019-03-28T00:07:46.124Z,4.00
2019-03-28T00:08:46.103Z,4.00
2019-03-28T00:09:46.081Z,4.00
2019-03-28T00:10:46.060Z,4.00
2019-03-28T00:11:46.037Z,4.00
2019-03-28T00:12:46.052Z,4.00
2019-03-28T00:13:46.006Z,4.00
2019-03-28T00:14:45.974Z,4.00
2019-03-28T00:15:45.954Z,4.00
2019-03-28T00:16:45.941Z,4.00
2019-03-28T00:17:45.916Z,4.00
2019-03-28T00:18:45.905Z,4.00
2019-03-28T00:19:45.883Z,4.00
2019-03-28T00:20:45.846Z,4.00
2019-03-28T00:21:45.834Z,4.00
2019-03-28T00:22:45.803Z,4.00
2019-03-28T00:23:45.787Z,4.00
2019-03-28T00:24:45.759Z,4.00
2019-03-28T00:25:45.744Z,4.00
2019-03-28T00:26:45.720Z,4.00
2019-03-28T00:27:46.257Z,4.00
2019-03-28T00:28:45.677Z,4.00
2019-03-28T00:29:45.659Z,4.00
2019-03-28T00:30:45.632Z,4.00
2019-03-28T00:31:47.879Z,4.00
2019-03-28T00:32:45.590Z,4.00
2019-03-28T00:33:45.568Z,4.00
2019-03-28T00:34:45.558Z,4.00
2019-03-28T00:35:45.524Z,4.00
2019-03-28T00:36:45.504Z,4.00
2019-03-28T00:37:45.491Z,4.00
2019-03-28T00:38:45.463Z,4.00
2019-03-28T00:39:45.441Z,4.00
2019-03-28T00:40:45.419Z,4.00
2019-03-28T00:41:45.397Z,4.00
2019-03-28T00:42:45.374Z,4.00
2019-03-28T00:43:45.403Z,4.00
2019-03-28T00:44:45.331Z,4.00
2019-03-28T00:45:45.318Z,4.00
2019-03-28T00:46:45.738Z,4.00
2019-03-28T00:47:45.266Z,4.00
2019-03-28T00:48:45.246Z,4.00
2019-03-28T00:49:45.246Z,4.00
2019-03-28T00:50:45.202Z,4.00
2019-03-28T00:51:45.183Z,4.00
2019-03-28T00:52:45.162Z,4.00
2019-03-28T00:53:45.151Z,4.00
2019-03-28T00:54:45.124Z,4.00
2019-03-28T00:55:45.100Z,4.00
2019-03-28T00:56:47.340Z,4.00
2019-03-28T00:57:45.054Z,4.00
2019-03-28T00:58:45.030Z,4.00
2019-03-28T00:59:45.012Z,4.00
2019-03-28T01:00:44.995Z,4.00
2019-03-28T01:01:44.968Z,4.00
2019-03-28T01:02:44.947Z,4.00
2019-03-28T01:03:44.925Z,4.00
2019-03-28T01:04:44.904Z,4.00
2019-03-28T01:05:44.885Z,4.00
2019-03-28T01:06:44.872Z,4.00
2019-03-28T01:07:44.846Z,4.00
2019-03-28T01:08:44.820Z,4.00
2019-03-28T01:09:44.806Z,4.00
2019-03-28T01:10:44.773Z,4.00
2019-03-28T01:11:44.751Z,4.00
2019-03-28T01:12:44.737Z,4.00
2019-03-28T01:13:44.710Z,4.00
2019-03-28T01:14:44.688Z,4.00
2019-03-28T01:15:44.670Z,4.00
2019-03-28T01:16:44.712Z,4.00
2019-03-28T01:17:44.625Z,4.00
2019-03-28T01:18:45.117Z,4.00
2019-03-28T01:19:44.582Z,4.00
2019-03-28T01:20:44.562Z,4.00
2019-03-28T01:21:44.537Z,4.00
2019-03-28T01:22:44.517Z,4.00
2019-03-28T01:23:44.493Z,4.00
2019-03-28T01:24:44.474Z,4.00
2019-03-28T01:25:44.452Z,4.00
2019-03-28T01:26:56.751Z,4.00
2019-03-28T01:27:44.414Z,4.00
2019-03-28T01:28:44.384Z,4.00
2019-03-28T01:29:44.365Z,4.00
2019-03-28T01:30:44.344Z,4.00
2019-03-28T01:31:44.321Z,4.00
2019-03-28T01:32:44.300Z,4.00
2019-03-28T01:33:44.288Z,4.00
2019-03-28T01:34:44.260Z,4.00
2019-03-28T01:35:44.283Z,4.00
2019-03-28T01:36:44.214Z,4.00
2019-03-28T01:37:44.191Z,4.00
2019-03-28T01:38:44.496Z,4.00
2019-03-28T01:39:44.150Z,4.00
2019-03-28T01:40:44.136Z,4.00
2019-03-28T01:41:44.112Z,4.00
2019-03-28T01:42:44.083Z,4.00
2019-03-28T01:43:44.059Z,4.00
2019-03-28T01:44:44.043Z,4.00
2019-03-28T01:45:44.017Z,4.00
2019-03-28T01:46:43.999Z,4.00
2019-03-28T01:47:43.974Z,4.00
2019-03-28T01:48:43.951Z,4.00
2019-03-28T01:49:43.932Z,4.00
2019-03-28T01:50:43.908Z,4.00
2019-03-28T01:51:43.886Z,4.00
2019-03-28T01:52:43.865Z,4.00
2019-03-28T01:53:43.848Z,4.00
2019-03-28T01:54:43.820Z,4.00
2019-03-28T01:55:43.799Z,4.00
2019-03-28T01:56:43.781Z,4.00
2019-03-28T01:57:43.760Z,4.00
2019-03-28T01:58:43.737Z,4.00
2019-03-28T01:59:43.713Z,4.00
2019-03-28T02:00:43.695Z,4.00
2019-03-28T02:01:43.669Z,4.00
2019-03-28T02:02:43.648Z,4.00
2019-03-28T02:03:43.627Z,4.00
2019-03-28T02:04:43.607Z,4.00
2019-03-28T02:05:43.582Z,4.00
2019-03-28T02:06:43.568Z,4.00
2019-03-28T02:07:43.540Z,4.00
2019-03-28T02:08:43.520Z,4.00
2019-03-28T02:09:43.496Z,4.00
2019-03-28T02:10:43.474Z,4.00
2019-03-28T02:11:43.510Z,4.00
2019-03-28T02:12:43.431Z,4.00
2019-03-28T02:13:43.409Z,4.00
2019-03-28T02:14:43.394Z,4.00
2019-03-28T02:15:43.365Z,4.00
2019-03-28T02:16:43.345Z,4.00
2019-03-28T02:17:43.322Z,4.00
2019-03-28T02:18:43.300Z,4.00
2019-03-28T02:19:43.278Z,4.00
2019-03-28T02:20:43.259Z,4.00
2019-03-28T02:21:43.234Z,4.00
2019-03-28T02:22:43.212Z,4.00
2019-03-28T02:23:43.198Z,4.00
2019-03-28T02:24:43.169Z,4.00
2019-03-28T02:25:43.489Z,4.00
2019-03-28T02:26:43.133Z,4.00
2019-03-28T02:27:43.102Z,4.00
2019-03-28T02:28:43.084Z,4.00
2019-03-28T02:29:43.064Z,4.00
2019-03-28T02:30:43.042Z,4.00
2019-03-28T02:31:43.307Z,4.00
2019-03-28T02:32:43.011Z,4.00
2019-03-28T02:33:42.982Z,4.00
2019-03-28T02:34:42.959Z,4.00
2019-03-28T02:35:42.934Z,4.00
2019-03-28T02:36:42.912Z,4.00
2019-03-28T02:37:42.888Z,4.00
2019-03-28T02:38:42.864Z,4.00
2019-03-28T02:39:42.844Z,4.00
2019-03-28T02:40:42.902Z,4.00
2019-03-28T02:41:42.799Z,4.00
2019-03-28T02:42:42.779Z,4.00
2019-03-28T02:43:42.768Z,4.00
2019-03-28T02:44:42.737Z,4.00
2019-03-28T02:45:42.715Z,4.00
2019-03-28T02:46:42.689Z,4.00
2019-03-28T02:47:42.718Z,4.00
2019-03-28T02:48:42.648Z,4.00
2019-03-28T02:49:42.626Z,4.00
2019-03-28T02:50:42.602Z,4.00
2019-03-28T02:51:42.589Z,4.00
2019-03-28T02:52:42.559Z,4.00
2019-03-28T02:53:42.544Z,4.00
2019-03-28T02:54:42.517Z,4.00
2019-03-28T02:55:42.493Z,4.00
2019-03-28T02:56:42.471Z,4.00
2019-03-28T02:57:43.790Z,4.00
2019-03-28T02:58:42.436Z,4.00
2019-03-28T02:59:42.416Z,4.00
2019-03-28T03:00:42.385Z,4.00
2019-03-28T03:01:42.363Z,4.00
2019-03-28T03:02:42.346Z,4.00
2019-03-28T03:03:42.328Z,4.00
2019-03-28T03:04:42.303Z,4.00
2019-03-28T03:05:42.306Z,4.00
2019-03-28T03:06:42.257Z,4.00
2019-03-28T03:07:42.260Z,4.00
2019-03-28T03:08:42.245Z,4.00
2019-03-28T03:09:42.203Z,4.00
2019-03-28T03:10:42.215Z,4.00
2019-03-28T03:11:42.927Z,4.00
2019-03-28T03:12:42.127Z,4.00
2019-03-28T03:13:42.105Z,4.00
2019-03-28T03:14:42.092Z,4.00
2019-03-28T03:15:42.063Z,4.00
2019-03-28T03:16:42.038Z,4.00
2019-03-28T03:17:42.042Z,4.00
2019-03-28T03:18:41.996Z,4.00
2019-03-28T03:19:41.969Z,4.00
2019-03-28T03:20:41.950Z,4.00
2019-03-28T03:21:41.931Z,4.00
2019-03-28T03:22:41.908Z,4.00
2019-03-28T03:23:41.890Z,4.00
2019-03-28T03:24:41.867Z,4.00
2019-03-28T03:25:41.902Z,4.00
2019-03-28T03:26:41.843Z,4.00
2019-03-28T03:27:57.047Z,4.00
2019-03-28T03:28:41.774Z,4.00
2019-03-28T03:29:41.757Z,4.00
2019-03-28T03:30:41.731Z,4.00
2019-03-28T03:31:41.712Z,4.00
2019-03-28T03:32:41.688Z,4.00
2019-03-28T03:33:41.677Z,4.00
2019-03-28T03:34:41.645Z,4.00
2019-03-28T03:35:41.623Z,4.00
2019-03-28T03:36:41.601Z,4.00
2019-03-28T03:37:41.588Z,4.00
2019-03-28T03:38:41.557Z,4.00
2019-03-28T03:39:41.585Z,4.00
2019-03-28T03:40:41.522Z,4.00
2019-03-28T03:41:41.492Z,4.00
2019-03-28T03:42:41.469Z,4.00
2019-03-28T03:43:41.448Z,4.00
2019-03-28T03:44:42.129Z,4.00
2019-03-28T03:45:41.418Z,4.00
2019-03-28T03:46:41.446Z,4.00
2019-03-28T03:47:41.359Z,4.00
2019-03-28T03:48:41.339Z,4.00
2019-03-28T03:49:41.320Z,4.00
2019-03-28T03:50:41.294Z,4.00
2019-03-28T03:51:41.282Z,4.00
2019-03-28T03:52:41.664Z,4.00
2019-03-28T03:53:41.236Z,4.00
2019-03-28T03:54:41.207Z,4.00
2019-03-28T03:55:41.187Z,4.00
2019-03-28T03:56:41.166Z,4.00
2019-03-28T03:57:41.157Z,4.00
2019-03-28T03:58:41.127Z,4.00
2019-03-28T03:59:41.099Z,4.00
2019-03-28T04:00:41.082Z,4.00
2019-03-28T04:01:41.105Z,4.00
2019-03-28T04:02:41.034Z,4.00
2019-03-28T04:03:41.012Z,4.00
2019-03-28T04:04:40.992Z,4.00
2019-03-28T04:05:40.978Z,4.00
2019-03-28T04:06:40.958Z,4.00
2019-03-28T04:07:40.924Z,4.00
2019-03-28T04:08:40.908Z,4.00
2019-03-28T04:09:40.906Z,4.00
2019-03-28T04:10:40.858Z,4.00
2019-03-28T04:11:40.842Z,4.00
2019-03-28T04:12:40.816Z,4.00
2019-03-28T04:13:40.793Z,4.00
2019-03-28T04:14:40.769Z,4.00
2019-03-28T04:15:40.756Z,4.00
2019-03-28T04:16:40.725Z,4.00
2019-03-28T04:17:40.705Z,4.00
2019-03-28T04:18:40.692Z,4.00
2019-03-28T04:19:40.659Z,4.00
2019-03-28T04:20:40.637Z,4.00
2019-03-28T04:21:40.616Z,4.00
2019-03-28T04:22:40.595Z,4.00
2019-03-28T04:23:40.587Z,4.00
2019-03-28T04:24:40.548Z,4.00
2019-03-28T04:25:40.528Z,4.00
2019-03-28T04:26:40.506Z,4.00
2019-03-28T04:27:40.483Z,4.00
2019-03-28T04:28:40.460Z,4.00
2019-03-28T04:29:40.441Z,4.00
2019-03-28T04:30:40.426Z,4.00
2019-03-28T04:31:40.395Z,4.00
2019-03-28T04:32:40.373Z,4.00
2019-03-28T04:33:40.350Z,4.00
2019-03-28T04:34:40.353Z,4.00
2019-03-28T04:35:40.338Z,4.00
2019-03-28T04:36:40.941Z,4.00
2019-03-28T04:37:40.262Z,4.00
2019-03-28T04:38:40.245Z,4.00
2019-03-28T04:39:40.217Z,4.00
2019-03-28T04:40:40.247Z,4.00
2019-03-28T04:41:40.193Z,4.00
2019-03-28T04:42:40.156Z,4.00
2019-03-28T04:43:40.131Z,8.00
2019-03-28T04:44:40.111Z,8.00
2019-03-28T04:45:40.095Z,4.00
2019-03-28T04:46:40.062Z,4.00
2019-03-28T04:47:40.041Z,4.00
2019-03-28T04:48:40.029Z,4.00
2019-03-28T04:49:39.997Z,4.00
2019-03-28T04:50:39.974Z,8.00
2019-03-28T04:51:39.951Z,8.00
2019-03-28T04:52:39.934Z,4.00
2019-03-28T04:53:39.911Z,8.00
2019-03-28T04:54:39.888Z,8.00
2019-03-28T04:55:39.865Z,8.00
2019-03-28T04:56:39.847Z,12.00
2019-03-28T04:57:41.155Z,12.00
2019-03-28T04:58:44.684Z,12.00
2019-03-28T04:59:39.786Z,16.00
2019-03-28T05:00:39.754Z,16.00
2019-03-28T05:01:39.737Z,16.00
2019-03-28T05:02:39.711Z,20.00
2019-03-28T05:03:39.690Z,20.00
2019-03-28T05:04:40.456Z,24.00
2019-03-28T05:05:39.648Z,28.00
2019-03-28T05:06:39.624Z,24.00
2019-03-28T05:07:39.602Z,28.00
2019-03-28T05:08:39.580Z,32.00
2019-03-28T05:09:39.558Z,40.00
2019-03-28T05:10:39.534Z,40.00
2019-03-28T05:11:39.511Z,48.00
2019-03-28T05:12:39.491Z,52.00
2019-03-28T05:13:39.480Z,60.00
2019-03-28T05:14:40.377Z,64.00
2019-03-28T05:15:39.431Z,72.00
2019-03-28T05:16:39.402Z,80.00
2019-03-28T05:17:40.422Z,84.00
2019-03-28T05:18:39.358Z,92.00
2019-03-28T05:19:39.348Z,100.00
2019-03-28T05:20:39.312Z,108.00
2019-03-28T05:21:39.293Z,116.00
2019-03-28T05:22:39.269Z,128.00
2019-03-28T05:23:39.280Z,136.00
2019-03-28T05:24:39.226Z,148.00
2019-03-28T05:25:39.208Z,156.00
2019-03-28T05:26:39.179Z,168.00
2019-03-28T05:27:39.169Z,176.00
2019-03-28T05:28:39.136Z,184.00
2019-03-28T05:29:39.113Z,196.00
2019-03-28T05:30:39.091Z,212.00
2019-03-28T05:31:39.069Z,220.00
2019-03-28T05:32:39.052Z,232.00
2019-03-28T05:33:39.026Z,244.00
2019-03-28T05:34:39.009Z,264.00
2019-03-28T05:35:39.000Z,288.00
2019-03-28T05:36:38.958Z,308.00
2019-03-28T05:37:38.936Z,336.00
2019-03-28T05:38:38.914Z,368.00
2019-03-28T05:39:38.892Z,396.00
2019-03-28T05:40:38.872Z,412.00
2019-03-28T05:41:38.854Z,424.00
2019-03-28T05:42:38.826Z,444.00
2019-03-28T05:43:38.812Z,476.00
2019-03-28T05:44:38.783Z,512.00
2019-03-28T05:45:38.768Z,544.00
2019-03-28T05:46:38.748Z,576.00
2019-03-28T05:47:38.717Z,612.00
2019-03-28T05:48:38.694Z,664.00
2019-03-28T05:49:38.680Z,728.00
2019-03-28T05:50:38.647Z,816.00
2019-03-28T05:51:38.627Z,884.00
2019-03-28T05:52:38.612Z,936.00
2019-03-28T05:53:38.585Z,980.00
2019-03-28T05:54:38.559Z,1000.00
2019-03-28T05:55:38.537Z,1016.00
2019-03-28T05:56:38.518Z,1016.00
2019-03-28T05:57:38.506Z,1020.00
2019-03-28T05:58:38.479Z,1032.00
2019-03-28T05:59:38.450Z,1060.00
2019-03-28T06:00:39.078Z,1120.00
2019-03-28T06:01:38.406Z,1204.00
2019-03-28T06:02:38.383Z,1308.00
2019-03-28T06:03:38.366Z,1420.00
2019-03-28T06:04:38.338Z,1524.00
2019-03-28T06:05:38.398Z,1620.00
2019-03-28T06:06:38.302Z,1704.00
2019-03-28T06:07:38.271Z,1764.00
2019-03-28T06:08:38.250Z,1784.00
2019-03-28T06:09:40.270Z,1792.00
2019-03-28T06:10:38.209Z,1816.00
2019-03-28T06:11:38.185Z,1892.00
2019-03-28T06:12:38.161Z,2016.00
2019-03-28T06:13:38.143Z,2160.00
2019-03-28T06:14:38.119Z,2280.00
2019-03-28T06:15:40.883Z,2368.00
2019-03-28T06:16:38.075Z,2416.00
2019-03-28T06:17:38.052Z,2448.00
2019-03-28T06:18:38.028Z,2476.00
2019-03-28T06:19:38.408Z,2500.00
2019-03-28T06:20:38.003Z,2548.00
2019-03-28T06:21:39.587Z,2600.00
2019-03-28T06:22:37.944Z,2700.00
2019-03-28T06:23:37.920Z,2800.00
2019-03-28T06:24:37.906Z,2916.00
2019-03-28T06:25:40.916Z,3084.00
2019-03-28T06:26:37.853Z,3308.00
2019-03-28T06:27:37.851Z,3556.00
2019-03-28T06:28:37.811Z,3812.00
2019-03-28T06:29:37.792Z,4020.00
2019-03-28T06:30:37.817Z,4156.00
2019-03-28T06:31:37.753Z,4224.00
2019-03-28T06:32:43.307Z,4288.00
2019-03-28T06:33:38.525Z,4392.00
2019-03-28T06:34:37.687Z,4532.00
2019-03-28T06:35:37.661Z,4700.00
2019-03-28T06:36:37.643Z,4876.00
2019-03-28T06:37:37.614Z,5032.00
2019-03-28T06:38:37.592Z,5144.00
2019-03-28T06:39:37.583Z,5192.00
2019-03-28T06:40:37.557Z,5160.00
2019-03-28T06:41:37.530Z,5048.00
2019-03-28T06:42:37.508Z,4896.00
2019-03-28T06:43:37.489Z,4728.00
2019-03-28T06:44:37.474Z,4564.00
2019-03-28T06:45:37.451Z,4428.00
2019-03-28T06:46:37.423Z,4312.00
2019-03-28T06:47:37.412Z,4188.00
2019-03-28T06:48:37.381Z,4068.00
2019-03-28T06:49:37.369Z,3988.00
2019-03-28T06:50:37.333Z,3916.00
2019-03-28T06:51:37.316Z,3832.00
2019-03-28T06:52:37.294Z,3776.00
2019-03-28T06:53:38.276Z,3764.00
2019-03-28T06:54:37.256Z,3736.00
2019-03-28T06:55:37.244Z,3664.00
2019-03-28T06:56:37.205Z,3628.00
2019-03-28T06:57:37.186Z,3624.00
2019-03-28T06:58:37.169Z,3652.00
2019-03-28T06:59:37.993Z,3704.00
2019-03-28T07:00:37.170Z,3804.00
2019-03-28T07:01:37.098Z,3900.00
2019-03-28T07:02:37.077Z,3832.00
2019-03-28T07:03:37.058Z,3680.00
2019-03-28T07:04:37.034Z,3628.00
2019-03-28T07:05:37.019Z,3688.00
2019-03-28T07:06:36.991Z,3872.00
2019-03-28T07:07:36.970Z,4188.00
2019-03-28T07:08:36.950Z,4520.00
2019-03-28T07:09:36.928Z,4704.00
2019-03-28T07:10:36.911Z,4784.00
2019-03-28T07:11:36.885Z,4660.00
2019-03-28T07:12:36.868Z,4340.00
2019-03-28T07:13:36.844Z,3984.00
2019-03-28T07:14:36.836Z,3668.00
2019-03-28T07:15:37.007Z,3404.00
2019-03-28T07:16:36.780Z,3212.00
2019-03-28T07:17:36.758Z,3108.00
2019-03-28T07:18:36.736Z,3100.00
2019-03-28T07:19:36.717Z,3128.00
2019-03-28T07:20:36.701Z,3140.00
2019-03-28T07:21:36.673Z,3136.00
2019-03-28T07:22:36.653Z,3136.00
2019-03-28T07:23:36.640Z,3152.00
2019-03-28T07:24:36.619Z,3188.00
2019-03-28T07:25:36.598Z,3200.00
2019-03-28T07:26:36.566Z,3180.00
2019-03-28T07:27:36.546Z,3128.00
2019-03-28T07:28:36.524Z,3068.00
2019-03-28T07:29:49.866Z,3020.00
2019-03-28T07:30:36.633Z,3044.00
2019-03-28T07:31:36.472Z,3188.00
2019-03-28T07:32:36.444Z,3428.00
2019-03-28T07:33:36.427Z,3744.00
2019-03-28T07:34:36.399Z,4056.00
2019-03-28T07:35:36.378Z,4224.00
2019-03-28T07:36:36.357Z,4148.00
2019-03-28T07:37:36.341Z,3944.00
2019-03-28T07:38:36.313Z,3692.00
2019-03-28T07:39:36.307Z,3560.00
2019-03-28T07:40:36.271Z,3684.00
2019-03-28T07:41:36.250Z,3756.00
2019-03-28T07:42:36.237Z,3596.00
2019-03-28T07:43:36.207Z,3484.00
2019-03-28T07:44:37.581Z,3572.00
2019-03-28T07:45:36.164Z,3792.00
2019-03-28T07:46:36.142Z,3960.00
2019-03-28T07:47:36.121Z,4088.00
2019-03-28T07:48:36.100Z,4140.00
2019-03-28T07:49:37.637Z,4124.00
2019-03-28T07:50:36.058Z,4048.00
2019-03-28T07:51:36.036Z,3996.00
2019-03-28T07:52:36.015Z,4020.00
2019-03-28T07:53:35.994Z,4168.00
2019-03-28T07:54:35.971Z,4436.00
2019-03-28T07:55:35.961Z,4608.00
2019-03-28T07:56:35.930Z,4620.00
2019-03-28T07:57:35.935Z,4668.00
2019-03-28T07:58:35.896Z,5088.00
2019-03-28T07:59:35.870Z,6104.00
2019-03-28T08:00:35.856Z,7604.00
2019-03-28T08:01:35.840Z,9100.00
2019-03-28T08:02:35.806Z,10456.00
2019-03-28T08:03:35.788Z,11732.00
2019-03-28T08:04:35.771Z,13032.00
2019-03-28T08:05:35.741Z,14384.00
2019-03-28T08:06:48.791Z,15724.00
2019-03-28T08:07:44.983Z,16636.00
2019-03-28T08:08:38.945Z,17408.00
2019-03-28T08:09:36.865Z,18080.00
2019-03-28T08:10:35.640Z,19232.00
2019-03-28T08:11:35.659Z,20992.00
2019-03-28T08:12:35.601Z,22592.00
2019-03-28T08:13:35.584Z,31328.00
2019-03-28T08:14:35.562Z,26240.00
2019-03-28T08:15:35.536Z,23136.00
2019-03-28T08:16:35.518Z,21760.00
2019-03-28T08:17:35.499Z,20992.00
2019-03-28T08:18:35.478Z,20736.00
2019-03-28T08:19:35.460Z,20704.00
2019-03-28T08:20:35.448Z,20704.00
2019-03-28T08:21:35.429Z,20672.00
2019-03-28T08:22:35.401Z,20896.00
2019-03-28T08:23:35.620Z,21312.00
2019-03-28T08:24:35.367Z,21728.00
2019-03-28T08:25:35.353Z,21984.00
2019-03-28T08:26:35.325Z,21952.00
2019-03-28T08:27:35.317Z,21920.00
2019-03-28T08:28:35.298Z,22272.00
2019-03-28T08:29:35.275Z,23008.00
2019-03-28T08:30:35.252Z,23936.00
2019-03-28T08:31:35.235Z,24384.00
2019-03-28T08:32:35.216Z,24192.00
2019-03-28T08:33:35.199Z,23424.00
2019-03-28T08:34:35.179Z,22784.00
2019-03-28T08:35:35.170Z,22752.00
2019-03-28T08:36:35.154Z,22624.00
2019-03-28T08:37:35.128Z,22816.00
2019-03-28T08:38:35.117Z,23008.00
2019-03-28T08:39:35.095Z,23168.00
2019-03-28T08:40:35.089Z,23296.00
2019-03-28T08:41:35.068Z,23552.00
2019-03-28T08:42:35.042Z,24032.00
2019-03-28T08:43:36.074Z,24448.00
2019-03-28T08:44:35.007Z,24704.00
2019-03-28T08:45:34.994Z,24736.00
2019-03-28T08:46:34.973Z,24800.00
2019-03-28T08:47:34.954Z,24992.00
2019-03-28T08:48:34.938Z,25504.00
2019-03-28T08:49:34.924Z,26560.00
2019-03-28T08:50:34.906Z,27840.00
2019-03-28T08:51:34.888Z,28160.00
2019-03-28T08:52:34.875Z,27232.00
2019-03-28T08:53:34.851Z,26048.00
2019-03-28T08:54:34.835Z,25152.00
2019-03-28T08:55:34.819Z,24864.00
2019-03-28T08:56:34.817Z,25216.00
2019-03-28T08:57:34.787Z,25920.00
2019-03-28T08:58:37.979Z,25632.00
2019-03-28T08:59:34.754Z,25024.00
2019-03-28T09:00:50.276Z,24160.00
2019-03-28T09:01:34.742Z,23360.00
2019-03-28T09:02:34.717Z,22720.00
2019-03-28T09:03:34.697Z,22272.00
2019-03-28T09:04:34.682Z,22144.00
2019-03-28T09:05:34.657Z,22272.00
2019-03-28T09:06:34.668Z,22496.00
2019-03-28T09:07:34.625Z,22592.00
2019-03-28T09:08:34.620Z,22528.00
2019-03-28T09:09:34.593Z,22368.00
2019-03-28T09:10:34.581Z,22240.00
2019-03-28T09:11:34.562Z,22208.00
2019-03-28T09:12:35.342Z,22336.00
2019-03-28T09:13:34.532Z,22432.00
2019-03-28T09:14:34.514Z,22112.00
2019-03-28T09:15:43.554Z,21568.00
2019-03-28T09:16:34.492Z,21088.00
2019-03-28T09:17:34.470Z,20896.00
2019-03-28T09:18:34.449Z,20896.00
2019-03-28T09:19:34.434Z,21248.00
2019-03-28T09:20:34.431Z,21728.00
2019-03-28T09:21:34.407Z,22080.00
2019-03-28T09:22:34.397Z,22080.00
2019-03-28T09:23:34.371Z,21440.00
2019-03-28T09:24:34.358Z,20320.00
2019-03-28T09:25:34.341Z,19680.00
2019-03-28T09:26:34.321Z,19520.00
2019-03-28T09:27:34.304Z,20128.00
2019-03-28T09:28:34.295Z,21408.00
2019-03-28T09:29:34.274Z,23232.00
2019-03-28T09:30:47.553Z,24832.00
2019-03-28T09:31:34.243Z,25344.00
2019-03-28T09:32:34.224Z,24736.00
2019-03-28T09:33:34.213Z,23872.00
2019-03-28T09:34:34.209Z,23488.00
2019-03-28T09:35:34.215Z,23648.00
2019-03-28T09:36:34.173Z,24288.00
2019-03-28T09:37:34.147Z,25056.00
2019-03-28T09:38:34.141Z,24576.00
2019-03-28T09:39:34.127Z,23840.00
2019-03-28T09:40:34.100Z,23520.00
2019-03-28T09:41:34.091Z,23168.00
2019-03-28T09:42:34.081Z,22816.00
2019-03-28T09:43:34.068Z,22272.00
2019-03-28T09:44:34.049Z,21824.00
2019-03-28T09:45:34.022Z,21568.00
2019-03-28T09:46:34.008Z,21440.00
2019-03-28T09:47:33.996Z,21184.00
2019-03-28T09:48:33.982Z,20576.00
2019-03-28T09:49:33.961Z,19936.00
2019-03-28T09:50:33.991Z,19776.00
2019-03-28T09:51:35.351Z,20224.00
2019-03-28T09:52:33.923Z,21184.00
2019-03-28T09:53:33.906Z,22272.00
2019-03-28T09:54:33.881Z,23040.00
2019-03-28T09:55:33.867Z,22880.00
2019-03-28T09:56:33.859Z,21728.00
2019-03-28T09:57:33.836Z,20416.00
2019-03-28T09:58:34.018Z,19616.00
2019-03-28T09:59:33.814Z,19424.00
2019-03-28T10:00:34.610Z,19808.00
2019-03-28T10:01:33.782Z,20704.00
2019-03-28T10:02:33.769Z,21984.00
2019-03-28T10:03:33.743Z,23328.00
2019-03-28T10:04:33.735Z,24384.00
2019-03-28T10:05:33.720Z,24896.00
2019-03-28T10:06:33.750Z,25312.00
2019-03-28T10:07:33.676Z,25536.00
2019-03-28T10:08:33.679Z,25984.00
2019-03-28T10:09:33.655Z,26304.00
2019-03-28T10:10:33.640Z,26272.00
2019-03-28T10:11:33.630Z,25920.00
2019-03-28T10:12:34.312Z,25472.00
2019-03-28T10:13:33.584Z,25184.00
2019-03-28T10:14:33.573Z,24960.00
2019-03-28T10:15:36.787Z,24480.00
2019-03-28T10:16:33.539Z,23296.00
2019-03-28T10:17:33.540Z,21952.00
2019-03-28T10:18:33.510Z,20512.00
2019-03-28T10:19:33.496Z,19680.00
2019-03-28T10:20:33.482Z,19552.00
2019-03-28T10:21:33.468Z,20096.00
2019-03-28T10:22:33.447Z,20768.00
2019-03-28T10:23:33.439Z,21152.00
2019-03-28T10:24:33.426Z,20768.00
2019-03-28T10:25:33.403Z,19712.00
2019-03-28T10:26:33.386Z,18496.00
2019-03-28T10:27:33.371Z,17568.00
2019-03-28T10:28:33.353Z,17120.00
2019-03-28T10:29:33.341Z,17088.00
2019-03-28T10:30:33.323Z,17440.00
2019-03-28T10:31:33.306Z,17984.00
2019-03-28T10:32:33.299Z,18496.00
2019-03-28T10:33:33.277Z,18848.00
2019-03-28T10:34:33.269Z,19072.00
2019-03-28T10:35:33.245Z,19232.00
2019-03-28T10:36:33.243Z,19296.00
2019-03-28T10:37:33.226Z,19328.00
2019-03-28T10:38:33.204Z,19328.00
2019-03-28T10:39:33.186Z,19232.00
2019-03-28T10:40:33.174Z,19136.00
2019-03-28T10:41:33.162Z,19168.00
2019-03-28T10:42:33.135Z,19392.00
2019-03-28T10:43:33.130Z,19872.00
2019-03-28T10:44:33.107Z,20256.00
2019-03-28T10:45:33.750Z,20256.00
2019-03-28T10:46:33.087Z,19968.00
2019-03-28T10:47:33.060Z,19392.00
2019-03-28T10:48:33.047Z,18912.00
2019-03-28T10:49:33.041Z,18816.00
2019-03-28T10:50:40.726Z,18976.00
2019-03-28T10:51:32.996Z,19136.00
2019-03-28T10:52:32.980Z,19360.00
2019-03-28T10:53:32.965Z,19392.00
2019-03-28T10:54:32.965Z,19616.00
2019-03-28T10:55:32.933Z,19904.00
2019-03-28T10:56:32.929Z,20352.00
2019-03-28T10:57:32.902Z,21024.00
2019-03-28T10:58:35.028Z,21728.00
2019-03-28T10:59:32.871Z,22368.00
2019-03-28T11:00:32.856Z,22976.00
2019-03-28T11:01:48.024Z,23456.00
2019-03-28T11:02:32.833Z,23552.00
2019-03-28T11:03:32.808Z,23744.00
2019-03-28T11:04:32.819Z,24096.00
2019-03-28T11:05:32.783Z,24704.00
2019-03-28T11:06:32.764Z,25472.00
2019-03-28T11:07:32.748Z,26016.00
2019-03-28T11:08:36.272Z,26336.00
2019-03-28T11:09:32.718Z,26592.00
2019-03-28T11:10:32.709Z,25824.00
2019-03-28T11:11:32.684Z,25472.00
2019-03-28T11:12:32.675Z,25728.00
2019-03-28T11:13:32.658Z,25600.00
2019-03-28T11:14:32.643Z,25888.00
2019-03-28T11:15:32.642Z,25728.00
2019-03-28T11:16:32.611Z,23808.00
2019-03-28T11:17:32.606Z,22848.00
2019-03-28T11:18:32.581Z,22624.00
2019-03-28T11:19:32.563Z,22848.00
2019-03-28T11:20:32.550Z,23360.00
2019-03-28T11:21:34.301Z,24704.00
2019-03-28T11:22:32.529Z,25504.00
2019-03-28T11:23:32.680Z,24192.00
2019-03-28T11:24:32.489Z,23264.00
2019-03-28T11:25:32.474Z,23200.00
2019-03-28T11:26:32.468Z,24032.00
2019-03-28T11:27:32.444Z,25600.00
2019-03-28T11:28:32.440Z,28544.00
2019-03-28T11:29:32.444Z,32256.00
2019-03-28T11:30:32.405Z,36672.00
2019-03-28T11:31:45.275Z,37280.00
2019-03-28T11:32:35.667Z,29216.00
2019-03-28T11:33:32.358Z,26848.00
2019-03-28T11:34:32.348Z,23200.00
2019-03-28T11:35:32.686Z,20608.00
2019-03-28T11:36:32.317Z,19680.00
2019-03-28T11:37:32.311Z,18976.00
2019-03-28T11:38:32.281Z,18208.00
2019-03-28T11:39:32.268Z,18624.00
2019-03-28T11:40:32.254Z,16768.00
2019-03-28T11:41:32.242Z,15516.00
2019-03-28T11:42:32.234Z,14928.00
2019-03-28T11:43:32.218Z,14828.00
2019-03-28T11:44:32.195Z,15044.00
2019-03-28T11:45:32.190Z,15728.00
2019-03-28T11:46:32.165Z,16340.00
2019-03-28T11:47:32.166Z,16612.00
2019-03-28T11:48:32.150Z,14248.00
2019-03-28T11:49:32.125Z,13332.00
2019-03-28T11:50:32.104Z,12812.00
2019-03-28T11:51:32.093Z,12028.00
2019-03-28T11:52:32.076Z,11504.00
2019-03-28T11:53:32.060Z,11208.00
2019-03-28T11:54:32.049Z,10800.00
2019-03-28T11:55:32.030Z,10392.00
2019-03-28T11:56:32.022Z,10284.00
2019-03-28T11:57:32.002Z,10188.00
2019-03-28T11:58:31.992Z,10088.00
2019-03-28T11:59:31.973Z,10676.00
2019-03-28T12:00:31.970Z,11456.00
2019-03-28T12:01:31.937Z,12008.00
2019-03-28T12:02:31.922Z,10896.00
2019-03-28T12:03:31.936Z,10720.00
2019-03-28T12:04:31.899Z,10568.00
2019-03-28T12:05:31.884Z,10380.00
2019-03-28T12:06:31.866Z,10352.00
2019-03-28T12:07:31.843Z,10392.00
2019-03-28T12:08:31.827Z,10464.00
2019-03-28T12:09:31.819Z,10724.00
2019-03-28T12:10:31.803Z,10912.00
2019-03-28T12:11:31.789Z,10880.00
2019-03-28T12:12:31.763Z,10836.00
2019-03-28T12:13:44.174Z,10896.00
2019-03-28T12:14:31.730Z,11228.00
2019-03-28T12:15:31.716Z,11708.00
2019-03-28T12:16:31.699Z,12240.00
2019-03-28T12:17:31.683Z,12712.00
2019-03-28T12:18:31.708Z,13044.00
2019-03-28T12:19:31.650Z,13212.00
2019-03-28T12:20:31.637Z,13176.00
2019-03-28T12:21:31.669Z,12972.00
2019-03-28T12:22:31.610Z,12608.00
2019-03-28T12:23:31.596Z,12336.00
2019-03-28T12:24:31.572Z,12176.00
2019-03-28T12:25:31.570Z,11988.00
2019-03-28T12:26:31.537Z,11936.00
2019-03-28T12:27:31.523Z,12000.00